Time;durP1;ratioP1;P1;durP2;ratioP2;P2;SDS_P1;SDS_P2;PMS_P1;PMS_P2;Temp;Humidity;BMP_temperature;BMP_pressure;BME280_temperature;BME280_humidity;BME280_pressure;Samples;Min_cycle;Max_cycle;Signal;HPM_P1;HPM_P2
2022/02/20 00:00:47;;;;;;;2.38;1.63;;;5.20;92.20;;;;;;5061878;28;20209;-85
2022/02/20 00:03:14;;;;;;;4.47;1.10;;;5.10;92.40;;;;;;5062877;28;20228;-84
2022/02/20 00:05:41;;;;;;;2.05;0.90;;;5.10;92.80;;;;;;5063777;28;20252;-84
2022/02/20 00:08:08;;;;;;;1.33;1.23;;;5.10;93.40;;;;;;5064838;28;20229;-84
2022/02/20 00:10:35;;;;;;;1.10;1.00;;;5.10;93.80;;;;;;5065517;28;20618;-84
2022/02/20 00:13:01;;;;;;;3.15;2.25;;;5.00;94.30;;;;;;5068689;28;20208;-85
2022/02/20 00:15:29;;;;;;;5.30;1.27;;;4.90;95.20;;;;;;5068935;28;20236;-84
2022/02/20 00:17:58;;;;;;;2.20;1.17;;;4.90;95.70;;;;;;5068525;28;20209;-84
2022/02/20 00:20:25;;;;;;;5.63;2.60;;;4.80;96.30;;;;;;5069312;28;20255;-85
2022/02/20 00:22:52;;;;;;;1.40;1.10;;;4.80;97.10;;;;;;5066824;28;20213;-84
2022/02/20 00:25:19;;;;;;;1.48;0.82;;;4.70;97.60;;;;;;5064314;28;20229;-84
2022/02/20 00:27:47;;;;;;;1.02;0.60;;;4.60;98.20;;;;;;5061707;28;20210;-85
2022/02/20 00:30:14;;;;;;;2.45;1.50;;;4.50;98.80;;;;;;5060820;28;20209;-85
2022/02/20 00:32:42;;;;;;;1.40;1.30;;;4.60;99.30;;;;;;5060360;28;20206;-85
2022/02/20 00:35:10;;;;;;;1.80;1.08;;;4.50;99.70;;;;;;5074520;22;20229;-83
2022/02/20 00:37:37;;;;;;;1.77;1.10;;;4.40;99.90;;;;;;5061349;28;20212;-83
2022/02/20 00:40:05;;;;;;;2.28;1.50;;;4.40;99.90;;;;;;5061086;28;20685;-83
2022/02/20 00:42:32;;;;;;;2.55;2.13;;;4.40;99.90;;;;;;5061687;28;20260;-83
2022/02/20 00:44:59;;;;;;;3.17;1.63;;;4.40;99.90;;;;;;5061039;28;20232;-83
2022/02/20 00:47:26;;;;;;;1.98;1.88;;;4.30;99.90;;;;;;5061257;28;20213;-83
2022/02/20 00:49:52;;;;;;;1.42;0.88;;;4.30;99.90;;;;;;5061033;28;20205;-83
2022/02/20 00:52:20;;;;;;;1.48;1.38;;;4.30;99.90;;;;;;5061504;28;20205;-83
2022/02/20 00:54:47;;;;;;;4.07;3.03;;;4.30;99.90;;;;;;5061862;28;20210;-83
2022/02/20 00:57:15;;;;;;;1.65;0.95;;;4.30;99.90;;;;;;5072126;28;20188;-83
2022/02/20 00:59:42;;;;;;;2.08;1.20;;;4.30;99.90;;;;;;5064655;28;20204;-83
2022/02/20 01:02:08;;;;;;;2.15;1.20;;;4.30;99.90;;;;;;5064327;28;20209;-82
2022/02/20 01:04:35;;;;;;;1.13;1.10;;;4.30;99.90;;;;;;5064641;28;20225;-82
2022/02/20 01:07:02;;;;;;;2.85;1.80;;;4.30;99.90;;;;;;5065755;28;20570;-83
2022/02/20 01:09:30;;;;;;;6.05;1.60;;;4.30;99.90;;;;;;5064693;28;20201;-83
2022/02/20 01:11:57;;;;;;;1.50;1.10;;;4.30;99.90;;;;;;5064287;28;20207;-83
2022/02/20 01:14:23;;;;;;;1.27;1.15;;;4.30;99.90;;;;;;5055803;28;20198;-81
2022/02/20 01:16:50;;;;;;;4.63;2.03;;;4.30;99.90;;;;;;5055768;28;20733;-83
2022/02/20 01:19:18;;;;;;;0.93;0.75;;;4.30;99.90;;;;;;5057455;28;20206;-83
2022/02/20 01:21:45;;;;;;;4.63;2.10;;;4.30;99.90;;;;;;5052900;28;20202;-83
2022/02/20 01:24:11;;;;;;;4.18;1.73;;;4.30;99.90;;;;;;5055020;28;20234;-82
2022/02/20 01:26:39;;;;;;;2.03;0.95;;;4.20;99.90;;;;;;5056392;28;20221;-83
2022/02/20 01:29:06;;;;;;;0.98;0.82;;;4.20;99.90;;;;;;5055623;28;20201;-82
2022/02/20 01:31:33;;;;;;;1.00;1.00;;;4.20;99.90;;;;;;5052386;28;20659;-83
2022/02/20 01:34:00;;;;;;;4.18;1.30;;;4.20;99.90;;;;;;5053974;28;20194;-81
2022/02/20 01:36:26;;;;;;;1.15;1.15;;;4.20;99.90;;;;;;5054373;28;20237;-82
2022/02/20 01:38:53;;;;;;;1.85;1.25;;;4.30;99.90;;;;;;5057289;28;20217;-83
2022/02/20 01:41:21;;;;;;;3.10;1.42;;;4.30;99.90;;;;;;5054505;28;20204;-83
2022/02/20 01:43:52;;;;;;;2.50;1.50;;;4.30;99.90;;;;;;5063255;28;20234;-83
2022/02/20 01:46:19;;;;;;;1.35;1.33;;;4.20;99.90;;;;;;5064308;28;20272;-83
2022/02/20 01:48:46;;;;;;;2.15;1.23;;;4.20;99.90;;;;;;5064560;28;20209;-82
2022/02/20 01:51:13;;;;;;;2.63;1.33;;;4.20;99.90;;;;;;5064157;28;20211;-83
2022/02/20 01:53:40;;;;;;;2.15;0.90;;;4.20;99.90;;;;;;5064847;28;20212;-83
2022/02/20 01:56:06;;;;;;;4.00;1.80;;;4.20;99.90;;;;;;5064074;28;20232;-83
2022/02/20 01:58:33;;;;;;;0.50;0.50;;;4.20;99.90;;;;;;5064524;28;20674;-83
2022/02/20 02:01:02;;;;;;;2.22;1.15;;;4.20;99.90;;;;;;5063981;28;20578;-83
2022/02/20 02:03:29;;;;;;;1.05;1.00;;;4.20;99.90;;;;;;5064408;28;20225;-83
2022/02/20 02:05:56;;;;;;;3.05;1.15;;;4.30;99.90;;;;;;5064501;28;20230;-83
2022/02/20 02:08:23;;;;;;;2.10;1.48;;;4.30;99.90;;;;;;5065204;28;20215;-82
2022/02/20 02:10:49;;;;;;;1.90;1.80;;;4.30;99.90;;;;;;5063871;28;20212;-83
2022/02/20 02:13:16;;;;;;;3.92;1.15;;;4.40;99.90;;;;;;5060259;28;20191;-83
2022/02/20 02:15:49;;;;;;;0.60;0.43;;;4.40;99.90;;;;;;5044178;28;20237;-83
2022/02/20 02:18:17;;;;;;;1.67;1.05;;;4.40;99.90;;;;;;5044003;28;20206;-83
2022/02/20 02:20:44;;;;;;;3.80;1.25;;;4.50;99.90;;;;;;5043864;28;20214;-83
2022/02/20 02:23:17;;;;;;;1.40;1.27;;;4.50;99.90;;;;;;5062605;28;20217;-83
2022/02/20 02:25:44;;;;;;;1.15;0.80;;;4.50;99.90;;;;;;5063393;28;20248;-83
2022/02/20 02:28:10;;;;;;;2.30;1.70;;;4.60;99.90;;;;;;5063668;28;20197;-83
2022/02/20 02:30:38;;;;;;;1.25;1.05;;;4.60;99.90;;;;;;5063093;28;20205;-83
2022/02/20 02:33:04;;;;;;;2.10;1.05;;;4.60;99.90;;;;;;5063073;28;20213;-83
2022/02/20 02:35:31;;;;;;;1.27;1.17;;;4.60;99.90;;;;;;5062646;28;20273;-82
2022/02/20 02:37:59;;;;;;;3.63;1.23;;;4.60;99.90;;;;;;5064543;28;20205;-84
2022/02/20 02:40:27;;;;;;;1.33;1.23;;;4.70;99.90;;;;;;5063189;28;20238;-82
2022/02/20 02:42:54;;;;;;;0.73;0.73;;;4.70;99.90;;;;;;5061448;28;20205;-83
2022/02/20 02:45:26;;;;;;;3.42;1.15;;;4.70;99.90;;;;;;5058919;28;20706;-83
2022/02/20 02:47:53;;;;;;;5.28;2.35;;;4.70;99.90;;;;;;5059473;28;20210;-83
2022/02/20 02:50:20;;;;;;;1.20;0.88;;;4.80;99.90;;;;;;5058920;28;20205;-83
2022/02/20 02:52:47;;;;;;;0.95;0.95;;;4.70;99.90;;;;;;5058769;28;20208;-83
2022/02/20 02:55:13;;;;;;;1.25;1.13;;;4.70;99.90;;;;;;5059313;28;20224;-83
2022/02/20 02:57:41;;;;;;;1.70;1.60;;;4.70;99.90;;;;;;5059296;28;20209;-83
2022/02/20 03:00:09;;;;;;;1.35;0.90;;;4.80;99.90;;;;;;5057562;28;20201;-83
2022/02/20 03:02:36;;;;;;;2.53;0.90;;;4.80;99.90;;;;;;5058715;28;20201;-83
2022/02/20 03:05:04;;;;;;;3.92;2.25;;;4.80;99.90;;;;;;5059218;28;20225;-83
2022/02/20 03:07:31;;;;;;;2.97;2.63;;;4.80;99.90;;;;;;5059128;28;20209;-83
2022/02/20 03:09:58;;;;;;;1.85;0.73;;;4.90;99.90;;;;;;5058175;28;20208;-83
2022/02/20 03:12:25;;;;;;;4.35;1.00;;;4.90;99.90;;;;;;5057906;28;20201;-83
2022/02/20 03:14:53;;;;;;;0.88;0.88;;;4.90;99.90;;;;;;5058727;28;20206;-83
2022/02/20 03:17:19;;;;;;;1.67;0.90;;;4.90;99.90;;;;;;5057355;28;20202;-83
2022/02/20 03:19:46;;;;;;;2.40;0.95;;;4.90;99.90;;;;;;5058628;28;20217;-83
2022/02/20 03:22:13;;;;;;;1.25;1.00;;;5.00;99.90;;;;;;5057721;28;20209;-82
2022/02/20 03:24:40;;;;;;;0.52;0.52;;;5.00;99.90;;;;;;5058192;28;20232;-83
2022/02/20 03:27:07;;;;;;;3.47;1.65;;;5.00;99.90;;;;;;5058466;28;20240;-83
2022/02/20 03:29:33;;;;;;;1.17;1.08;;;4.90;99.90;;;;;;5058868;28;20205;-83
2022/02/20 03:32:02;;;;;;;2.70;0.93;;;5.00;99.90;;;;;;5058092;28;20586;-83
2022/02/20 03:34:28;;;;;;;3.17;1.05;;;5.00;99.90;;;;;;5058399;28;20204;-83
2022/02/20 03:36:55;;;;;;;9.05;1.70;;;5.00;99.90;;;;;;5058229;28;20233;-83
2022/02/20 03:39:22;;;;;;;2.35;1.10;;;5.00;99.90;;;;;;5058492;28;20206;-83
2022/02/20 03:41:49;;;;;;;1.45;1.35;;;5.00;99.90;;;;;;5057129;28;20201;-83
2022/02/20 03:44:16;;;;;;;2.35;1.10;;;5.00;99.90;;;;;;5057881;28;20226;-83
2022/02/20 03:46:42;;;;;;;5.28;1.10;;;5.00;99.90;;;;;;5062005;28;20234;-83
2022/02/20 03:49:10;;;;;;;2.67;1.30;;;5.10;99.90;;;;;;5062410;28;20221;-83
2022/02/20 03:51:37;;;;;;;0.80;0.52;;;5.10;99.90;;;;;;5062345;28;20201;-83
2022/02/20 03:54:04;;;;;;;1.30;0.85;;;5.00;99.90;;;;;;5062973;28;20209;-83
2022/02/20 03:56:31;;;;;;;1.23;0.98;;;5.10;99.90;;;;;;5062630;28;20228;-83
2022/02/20 03:58:58;;;;;;;1.67;0.80;;;5.00;99.90;;;;;;5062631;28;20210;-83
2022/02/20 04:01:24;;;;;;;0.70;0.70;;;5.10;99.90;;;;;;5061617;28;20586;-83
2022/02/20 04:03:51;;;;;;;4.63;1.30;;;5.00;99.90;;;;;;5062509;28;20300;-83
2022/02/20 04:06:19;;;;;;;1.52;0.85;;;4.90;99.90;;;;;;5061980;28;20221;-83
2022/02/20 04:08:46;;;;;;;1.88;0.88;;;4.90;99.90;;;;;;5061659;28;20201;-83
2022/02/20 04:11:12;;;;;;;1.42;1.23;;;4.80;99.90;;;;;;5061712;28;20208;-83
2022/02/20 04:13:39;;;;;;;0.80;0.80;;;4.70;99.90;;;;;;5061986;28;20212;-83
2022/02/20 04:16:06;;;;;;;0.50;0.50;;;4.70;99.90;;;;;;5061284;28;20229;-83
2022/02/20 04:18:33;;;;;;;2.67;2.47;;;4.70;99.90;;;;;;5062042;28;20212;-82
2022/02/20 04:21:00;;;;;;;0.90;0.65;;;4.70;99.90;;;;;;5061439;28;20202;-83
2022/02/20 04:23:30;;;;;;;1.05;0.75;;;4.70;99.90;;;;;;5061629;28;20212;-83
2022/02/20 04:26:00;;;;;;;0.50;0.50;;;4.70;99.90;;;;;;5061395;28;20225;-83
2022/02/20 04:28:28;;;;;;;0.45;0.45;;;4.70;99.90;;;;;;5062276;28;20576;-83
2022/02/20 04:30:54;;;;;;;0.77;0.77;;;4.70;99.90;;;;;;5061556;28;20212;-82
2022/02/20 04:33:21;;;;;;;1.77;0.63;;;4.60;99.90;;;;;;5061916;28;20217;-82
2022/02/20 04:35:48;;;;;;;1.40;0.80;;;4.60;99.90;;;;;;5060900;28;20236;-83
2022/02/20 04:38:15;;;;;;;0.50;0.50;;;4.60;99.90;;;;;;5061522;28;20205;-83
2022/02/20 04:40:43;;;;;;;1.67;0.82;;;4.50;99.90;;;;;;5061022;28;20217;-83
2022/02/20 04:43:10;;;;;;;0.80;0.80;;;4.50;99.90;;;;;;5060856;28;20206;-83
2022/02/20 04:45:36;;;;;;;0.80;0.80;;;4.50;99.90;;;;;;5061022;28;20237;-82
2022/02/20 04:48:03;;;;;;;1.25;0.60;;;4.50;99.90;;;;;;5061157;28;20210;-82
2022/02/20 04:50:30;;;;;;;2.85;0.85;;;4.40;99.90;;;;;;5061058;28;20205;-83
2022/02/20 04:52:57;;;;;;;1.50;0.90;;;4.50;99.90;;;;;;5062315;28;20209;-83
2022/02/20 04:55:24;;;;;;;1.23;0.60;;;4.50;99.90;;;;;;5062942;28;20218;-83
2022/02/20 04:57:52;;;;;;;0.95;0.70;;;4.40;99.90;;;;;;5062498;28;20209;-83
2022/02/20 05:00:19;;;;;;;1.08;0.70;;;4.40;99.90;;;;;;5062436;28;20213;-83
2022/02/20 05:02:46;;;;;;;0.85;0.85;;;4.40;99.90;;;;;;5063572;28;20217;-83
2022/02/20 05:05:12;;;;;;;0.57;0.57;;;4.40;99.90;;;;;;5061856;28;20225;-83
2022/02/20 05:07:39;;;;;;;0.68;0.57;;;4.40;99.90;;;;;;5062334;28;20209;-83
2022/02/20 05:10:06;;;;;;;0.85;0.70;;;4.40;99.90;;;;;;5062964;28;20205;-83
2022/02/20 05:12:33;;;;;;;0.70;0.70;;;4.40;99.90;;;;;;5063608;28;20216;-82
2022/02/20 05:15:01;;;;;;;1.23;0.80;;;4.40;99.90;;;;;;5063533;28;20218;-83
2022/02/20 05:17:28;;;;;;;0.60;0.60;;;4.40;99.90;;;;;;5063523;28;20204;-82
2022/02/20 05:19:55;;;;;;;0.80;0.77;;;4.40;99.90;;;;;;5064093;28;20205;-83
2022/02/20 05:22:21;;;;;;;2.15;0.68;;;4.30;99.90;;;;;;5063485;28;20208;-81
2022/02/20 05:24:50;;;;;;;0.70;0.70;;;4.30;99.90;;;;;;5063465;28;20228;-83
2022/02/20 05:27:17;;;;;;;1.20;1.08;;;4.30;99.90;;;;;;5064215;28;20642;-83
2022/02/20 05:29:43;;;;;;;0.55;0.55;;;4.30;99.90;;;;;;5063692;28;20297;-83
2022/02/20 05:32:11;;;;;;;1.50;0.82;;;4.30;99.90;;;;;;5043100;28;20209;-82
2022/02/20 05:34:38;;;;;;;1.23;1.15;;;4.40;99.90;;;;;;5061552;28;20209;-83
2022/02/20 05:37:07;;;;;;;1.33;0.90;;;4.40;99.90;;;;;;5062597;28;20271;-83
2022/02/20 05:39:33;;;;;;;1.70;0.55;;;4.30;99.90;;;;;;5062338;28;20299;-83
2022/02/20 05:42:00;;;;;;;1.20;0.98;;;4.40;99.90;;;;;;5062214;28;20209;-82
2022/02/20 05:44:27;;;;;;;1.42;0.73;;;4.40;99.90;;;;;;5062149;28;20224;-83
2022/02/20 05:46:54;;;;;;;0.90;0.90;;;4.30;99.90;;;;;;5062668;28;20228;-83
2022/02/20 05:49:22;;;;;;;1.95;0.90;;;4.40;99.90;;;;;;5061670;28;20228;-83
2022/02/20 05:51:48;;;;;;;1.00;1.00;;;4.40;99.90;;;;;;5061165;28;20571;-83
2022/02/20 05:54:15;;;;;;;0.40;0.40;;;4.40;99.90;;;;;;5062277;28;20202;-83
2022/02/20 05:56:42;;;;;;;2.90;1.38;;;4.40;99.90;;;;;;5062781;28;20232;-83
2022/02/20 05:59:08;;;;;;;0.70;0.70;;;4.40;99.90;;;;;;5062018;28;20213;-82
2022/02/20 06:01:35;;;;;;;1.70;0.60;;;4.40;99.90;;;;;;5061171;28;20208;-83
2022/02/20 06:04:02;;;;;;;0.95;0.95;;;4.50;99.90;;;;;;5059983;28;20206;-84
2022/02/20 06:06:32;;;;;;;1.30;0.60;;;4.50;99.90;;;;;;5060981;28;20592;-81
2022/02/20 06:08:59;;;;;;;1.17;1.08;;;4.50;99.90;;;;;;5061343;28;20211;-83
2022/02/20 06:11:26;;;;;;;1.88;0.82;;;4.50;99.90;;;;;;5061051;28;20701;-83
2022/02/20 06:13:53;;;;;;;0.70;0.70;;;4.50;99.90;;;;;;5061652;28;20214;-82
2022/02/20 06:16:21;;;;;;;2.67;0.90;;;4.60;99.90;;;;;;5061534;28;20229;-83
2022/02/20 06:18:47;;;;;;;0.88;0.75;;;4.60;99.90;;;;;;5051790;28;20205;-83
2022/02/20 06:21:14;;;;;;;0.60;0.60;;;4.50;99.90;;;;;;5041642;28;20206;-83
2022/02/20 06:23:42;;;;;;;2.20;1.25;;;4.60;99.90;;;;;;5043263;28;20590;-82
2022/02/20 06:26:09;;;;;;;0.55;0.50;;;4.60;99.90;;;;;;5046358;28;20241;-82
2022/02/20 06:28:36;;;;;;;0.70;0.70;;;4.70;99.90;;;;;;5062407;28;20194;-82
2022/02/20 06:31:04;;;;;;;0.77;0.77;;;4.70;99.90;;;;;;5061145;28;20209;-83
2022/02/20 06:33:30;;;;;;;0.80;0.80;;;4.70;99.90;;;;;;5061858;28;20615;-82
2022/02/20 06:35:57;;;;;;;0.80;0.80;;;4.80;99.90;;;;;;5060455;28;20234;-82
2022/02/20 06:38:24;;;;;;;0.95;0.85;;;4.80;99.90;;;;;;5059185;28;20206;-82
2022/02/20 06:40:52;;;;;;;4.95;1.02;;;4.80;99.90;;;;;;5059368;28;20217;-82
2022/02/20 06:43:18;;;;;;;1.35;0.70;;;4.80;99.90;;;;;;5059090;28;20621;-82
2022/02/20 06:45:45;;;;;;;1.65;0.60;;;4.90;99.90;;;;;;5059609;28;20241;-82
2022/02/20 06:48:12;;;;;;;0.70;0.70;;;4.90;99.90;;;;;;5059069;28;20212;-82
2022/02/20 06:50:38;;;;;;;0.77;0.60;;;4.90;99.90;;;;;;5058511;28;20210;-82
2022/02/20 06:53:06;;;;;;;4.22;0.60;;;5.00;99.90;;;;;;5058359;28;20210;-84
2022/02/20 06:55:33;;;;;;;0.82;0.55;;;5.00;99.90;;;;;;5059359;28;20222;-84
2022/02/20 06:58:01;;;;;;;0.88;0.88;;;5.10;99.90;;;;;;5059023;28;20212;-84
2022/02/20 07:00:28;;;;;;;0.60;0.60;;;5.10;99.90;;;;;;5059637;28;20573;-82
2022/02/20 07:02:54;;;;;;;2.25;0.50;;;5.10;99.90;;;;;;5059344;28;20215;-82
2022/02/20 07:05:22;;;;;;;0.35;0.35;;;5.10;99.90;;;;;;5059044;28;20237;-82
2022/02/20 07:07:48;;;;;;;0.50;0.50;;;5.20;99.90;;;;;;5058584;28;20267;-82
2022/02/20 07:10:15;;;;;;;1.10;0.60;;;5.10;99.90;;;;;;5058144;28;20213;-82
2022/02/20 07:12:42;;;;;;;0.55;0.50;;;5.20;99.90;;;;;;5058565;28;20212;-82
2022/02/20 07:15:11;;;;;;;0.65;0.65;;;5.20;99.90;;;;;;5058549;28;20305;-82
2022/02/20 07:17:37;;;;;;;1.13;0.65;;;5.20;99.90;;;;;;5059229;28;20273;-82
2022/02/20 07:20:06;;;;;;;1.25;1.13;;;5.20;99.90;;;;;;5058099;28;20201;-82
2022/02/20 07:22:34;;;;;;;0.52;0.52;;;5.30;99.90;;;;;;5058592;28;20216;-82
2022/02/20 07:25:02;;;;;;;0.70;0.70;;;5.30;99.90;;;;;;5058354;28;20228;-82
2022/02/20 07:27:36;;;;;;;2.55;1.00;;;5.30;99.90;;;;;;5058401;28;20209;-82
2022/02/20 07:30:03;;;;;;;0.55;0.55;;;5.30;99.90;;;;;;5058327;28;20193;-82
2022/02/20 07:32:31;;;;;;;1.00;0.75;;;5.30;99.90;;;;;;5058077;28;20667;-82
2022/02/20 07:34:58;;;;;;;0.77;0.65;;;5.40;99.90;;;;;;5057575;28;20197;-82
2022/02/20 07:37:28;;;;;;;0.60;0.60;;;5.40;99.90;;;;;;5058326;28;20210;-82
2022/02/20 07:39:55;;;;;;;1.08;1.00;;;5.40;99.90;;;;;;5058237;28;20238;-82
2022/02/20 07:42:21;;;;;;;1.40;0.85;;;5.40;99.90;;;;;;5057679;28;20197;-82
2022/02/20 07:44:48;;;;;;;1.02;0.80;;;5.50;99.90;;;;;;5058083;28;20222;-82
2022/02/20 07:47:15;;;;;;;4.43;0.80;;;5.50;99.90;;;;;;5057764;28;20620;-82
2022/02/20 07:49:43;;;;;;;0.80;0.40;;;5.50;99.90;;;;;;5057465;28;20214;-82
2022/02/20 07:52:10;;;;;;;2.15;0.88;;;5.50;99.90;;;;;;5057569;28;20194;-82
2022/02/20 07:54:37;;;;;;;0.80;0.80;;;5.50;99.90;;;;;;5057956;28;20197;-82
2022/02/20 07:57:04;;;;;;;0.52;0.52;;;5.50;99.90;;;;;;5057587;28;20225;-82
2022/02/20 07:59:31;;;;;;;0.63;0.63;;;5.60;99.90;;;;;;5058014;28;20201;-83
2022/02/20 08:01:57;;;;;;;0.88;0.70;;;5.70;99.90;;;;;;5057668;28;20312;-82
2022/02/20 08:04:24;;;;;;;4.22;0.75;;;5.70;99.90;;;;;;5057934;28;20221;-82
2022/02/20 08:06:53;;;;;;;1.58;0.77;;;5.80;99.90;;;;;;5057832;28;20228;-82
2022/02/20 08:09:20;;;;;;;1.02;0.70;;;5.90;99.90;;;;;;5058747;28;20209;-83
2022/02/20 08:11:46;;;;;;;2.35;0.98;;;6.00;99.90;;;;;;5057450;28;20921;-83
2022/02/20 08:14:13;;;;;;;0.90;0.90;;;6.10;99.90;;;;;;5058345;28;20201;-83
2022/02/20 08:16:40;;;;;;;1.15;0.68;;;6.30;99.90;;;;;;5058304;28;20218;-83
2022/02/20 08:19:07;;;;;;;0.70;0.70;;;6.20;99.90;;;;;;5057550;28;20210;-83
2022/02/20 08:21:33;;;;;;;0.82;0.82;;;6.20;99.90;;;;;;5057680;28;20205;-83
2022/02/20 08:24:01;;;;;;;0.70;0.70;;;6.20;99.90;;;;;;5058083;28;20588;-83
2022/02/20 08:26:28;;;;;;;1.23;1.13;;;6.30;99.90;;;;;;5058946;28;20221;-83
2022/02/20 08:28:55;;;;;;;1.58;0.70;;;6.30;99.90;;;;;;5058351;28;20208;-83
2022/02/20 08:31:22;;;;;;;0.82;0.82;;;6.40;99.90;;;;;;5058059;28;20197;-83
2022/02/20 08:33:48;;;;;;;1.02;0.63;;;6.50;99.90;;;;;;5062088;28;20225;-83
2022/02/20 08:36:15;;;;;;;0.88;0.63;;;6.60;99.90;;;;;;5060659;28;20229;-83
2022/02/20 08:38:42;;;;;;;1.50;0.73;;;6.60;99.90;;;;;;5061927;28;20206;-83
2022/02/20 08:41:10;;;;;;;0.80;0.75;;;6.70;99.90;;;;;;5061377;28;20674;-83
2022/02/20 08:43:37;;;;;;;1.10;1.00;;;6.80;99.90;;;;;;5060963;28;20210;-83
2022/02/20 08:46:04;;;;;;;0.70;0.70;;;6.70;99.90;;;;;;5061328;28;20232;-83
2022/02/20 08:48:36;;;;;;;0.80;0.80;;;6.70;99.90;;;;;;5062231;28;20299;-83
2022/02/20 08:51:03;;;;;;;0.90;0.90;;;6.80;99.90;;;;;;5061010;28;20253;-83
2022/02/20 08:53:29;;;;;;;1.35;1.08;;;6.80;99.90;;;;;;5061072;28;20198;-83
2022/02/20 08:55:56;;;;;;;1.05;0.57;;;6.90;99.90;;;;;;5061075;28;20224;-83
2022/02/20 08:58:24;;;;;;;1.67;1.05;;;6.90;99.90;;;;;;5061881;28;20213;-82
2022/02/20 09:00:51;;;;;;;2.15;0.80;;;7.00;99.90;;;;;;5060458;28;20201;-83
2022/02/20 09:03:17;;;;;;;0.80;0.70;;;7.10;99.90;;;;;;5060736;28;20671;-83
2022/02/20 09:05:47;;;;;;;0.57;0.57;;;7.20;99.90;;;;;;5060503;28;20257;-83
2022/02/20 09:08:14;;;;;;;0.47;0.47;;;7.40;99.90;;;;;;5056274;28;20212;-82
2022/02/20 09:10:42;;;;;;;2.67;1.30;;;7.30;99.90;;;;;;5052613;28;20198;-83
2022/02/20 09:13:10;;;;;;;0.65;0.65;;;7.50;99.90;;;;;;5053444;28;20194;-84
2022/02/20 09:15:40;;;;;;;1.52;0.60;;;7.50;99.90;;;;;;5057177;28;20730;-82
2022/02/20 09:18:07;;;;;;;0.55;0.43;;;7.30;99.90;;;;;;5058810;28;20201;-82
2022/02/20 09:20:34;;;;;;;0.40;0.40;;;7.50;99.90;;;;;;5050771;28;20198;-83
2022/02/20 09:23:01;;;;;;;1.13;1.02;;;7.40;99.90;;;;;;5051370;28;20198;-83
2022/02/20 09:25:28;;;;;;;0.50;0.50;;;7.40;99.90;;;;;;5052581;28;20221;-83
2022/02/20 09:27:54;;;;;;;0.65;0.60;;;7.30;99.90;;;;;;5052718;28;20285;-84
2022/02/20 09:30:21;;;;;;;1.63;0.70;;;7.40;99.90;;;;;;5047914;28;20209;-83
2022/02/20 09:32:49;;;;;;;0.70;0.70;;;7.50;99.90;;;;;;5050685;28;20228;-83
2022/02/20 09:35:16;;;;;;;4.03;1.05;;;7.50;99.90;;;;;;5061536;28;20594;-83
2022/02/20 09:37:46;;;;;;;1.10;0.80;;;7.50;99.90;;;;;;5056953;28;20202;-83
2022/02/20 09:40:13;;;;;;;1.60;0.93;;;7.50;99.90;;;;;;5052541;28;20216;-84
2022/02/20 09:42:40;;;;;;;0.95;0.90;;;7.70;99.90;;;;;;5061300;28;20212;-83
2022/02/20 09:45:07;;;;;;;0.50;0.50;;;7.70;99.90;;;;;;5060942;28;20231;-84
2022/02/20 09:47:37;;;;;;;0.40;0.40;;;7.80;99.90;;;;;;5062491;28;20214;-84
2022/02/20 09:50:06;;;;;;;0.68;0.65;;;7.80;99.90;;;;;;5062680;28;20205;-84
2022/02/20 09:52:34;;;;;;;1.85;0.65;;;7.90;99.90;;;;;;5061239;28;20194;-84
2022/02/20 09:55:00;;;;;;;2.35;0.75;;;7.90;99.90;;;;;;5060987;28;20233;-84
2022/02/20 09:57:27;;;;;;;0.85;0.50;;;8.00;99.90;;;;;;5061954;28;20201;-84
2022/02/20 09:59:54;;;;;;;0.80;0.80;;;7.90;99.90;;;;;;5061064;28;20203;-84
2022/02/20 10:02:21;;;;;;;0.50;0.40;;;7.90;99.90;;;;;;5060748;28;20203;-84
2022/02/20 10:04:50;;;;;;;1.33;1.17;;;8.00;99.90;;;;;;5061172;28;20202;-84
2022/02/20 10:07:28;;;;;;;1.80;0.70;;;8.10;99.90;;;;;;5061737;28;20225;-83
2022/02/20 10:09:56;;;;;;;0.85;0.85;;;8.10;99.90;;;;;;5065678;28;20216;-84
2022/02/20 10:12:25;;;;;;;2.05;0.98;;;8.20;99.90;;;;;;5067671;28;20205;-83
2022/02/20 10:14:53;;;;;;;1.95;0.70;;;8.30;99.90;;;;;;5061909;28;20210;-84
2022/02/20 10:17:22;;;;;;;2.90;0.60;;;8.30;99.90;;;;;;5061659;28;20206;-84
2022/02/20 10:19:57;;;;;;;0.80;0.70;;;8.30;99.90;;;;;;5061714;28;20234;-83
2022/02/20 10:22:30;;;;;;;0.75;0.60;;;8.20;99.90;;;;;;5060142;28;20232;-84
2022/02/20 10:25:02;;;;;;;0.52;0.52;;;8.20;99.90;;;;;;5060858;28;20218;-83
2022/02/20 10:27:29;;;;;;;0.40;0.40;;;8.30;99.90;;;;;;5061747;28;20737;-84
2022/02/20 10:30:20;;;;;;;0.52;0.52;;;8.30;99.90;;;;;;5060948;28;20212;-83
2022/02/20 10:33:02;;;;;;;0.30;0.30;;;8.30;99.90;;;;;;5060169;28;20216;-83
2022/02/20 10:35:31;;;;;;;0.70;0.40;;;8.40;99.90;;;;;;5061024;28;20237;-83
2022/02/20 10:38:00;;;;;;;0.65;0.47;;;8.50;99.90;;;;;;5046503;28;20579;-83
2022/02/20 10:40:29;;;;;;;0.93;0.40;;;8.60;99.90;;;;;;5060685;28;20202;-84
2022/02/20 10:42:57;;;;;;;1.42;0.45;;;8.60;99.90;;;;;;5060347;28;20701;-82
2022/02/20 10:45:32;;;;;;;0.43;0.43;;;8.60;99.90;;;;;;5060290;28;20234;-83
2022/02/20 10:47:59;;;;;;;0.40;0.40;;;8.80;99.90;;;;;;5061785;28;20207;-83
2022/02/20 10:50:27;;;;;;;0.50;0.50;;;8.80;99.90;;;;;;5054776;28;20204;-83
2022/02/20 10:53:14;;;;;;;0.93;0.40;;;8.80;99.90;;;;;;5055587;28;20202;-84
2022/02/20 10:55:43;;;;;;;0.80;0.40;;;8.90;99.90;;;;;;5049672;28;20214;-83
2022/02/20 10:58:12;;;;;;;0.50;0.40;;;8.90;99.90;;;;;;5054493;28;20266;-84
2022/02/20 11:00:59;;;;;;;0.40;0.40;;;8.90;99.90;;;;;;5060138;28;20199;-86
2022/02/20 11:03:27;;;;;;;1.38;0.60;;;8.90;99.90;;;;;;5061088;28;20210;-85
2022/02/20 11:05:55;;;;;;;1.85;0.60;;;8.90;99.90;;;;;;5063486;28;20223;-83
2022/02/20 11:08:26;;;;;;;0.55;0.55;;;9.00;99.90;;;;;;5062414;28;20393;-82
2022/02/20 11:10:54;;;;;;;0.80;0.80;;;9.00;99.90;;;;;;5071612;28;20194;-82
2022/02/20 11:13:22;;;;;;;0.40;0.40;;;8.90;99.90;;;;;;5071203;28;20213;-83
2022/02/20 11:15:53;;;;;;;1.15;0.80;;;8.80;99.90;;;;;;5065495;28;20238;-84
2022/02/20 11:18:22;;;;;;;0.40;0.40;;;8.90;99.90;;;;;;5064474;28;20206;-82
2022/02/20 11:20:51;;;;;;;0.47;0.47;;;9.00;99.90;;;;;;5063569;28;20210;-83
2022/02/20 11:23:25;;;;;;;0.60;0.60;;;9.10;99.90;;;;;;5062225;28;20206;-83
2022/02/20 11:25:53;;;;;;;1.90;0.75;;;9.20;99.90;;;;;;5063692;28;20234;-82
2022/02/20 11:28:20;;;;;;;1.67;0.50;;;9.30;99.90;;;;;;5057194;28;20197;-81
2022/02/20 11:30:48;;;;;;;2.25;0.73;;;9.30;99.90;;;;;;5058029;28;20220;-82
2022/02/20 11:33:15;;;;;;;1.58;0.50;;;9.30;99.90;;;;;;5060730;28;20293;-82
2022/02/20 11:35:44;;;;;;;0.50;0.50;;;9.20;99.90;;;;;;5061088;28;20234;-82
2022/02/20 11:38:14;;;;;;;0.45;0.45;;;9.30;99.90;;;;;;5060848;28;20209;-82
2022/02/20 11:40:54;;;;;;;0.43;0.43;;;9.30;99.90;;;;;;5060389;28;20311;-82
2022/02/20 11:43:22;;;;;;;2.97;0.80;;;9.20;99.90;;;;;;5061984;28;20598;-82
2022/02/20 11:46:05;;;;;;;0.73;0.57;;;9.10;99.90;;;;;;5059808;28;20628;-83
2022/02/20 11:48:32;;;;;;;0.50;0.45;;;9.10;99.90;;;;;;5061048;28;20447;-82
2022/02/20 11:51:15;;;;;;;0.32;0.30;;;9.20;99.90;;;;;;5063883;28;20227;-82
2022/02/20 11:53:42;;;;;;;1.73;0.40;;;9.30;99.90;;;;;;5061697;28;20205;-82
2022/02/20 11:56:12;;;;;;;0.98;0.95;;;9.40;99.90;;;;;;5064533;28;20229;-82
2022/02/20 11:58:42;;;;;;;0.40;0.40;;;9.20;99.90;;;;;;5063278;28;20774;-82
2022/02/20 12:01:11;;;;;;;1.60;0.47;;;9.10;99.90;;;;;;5064318;28;20203;-82
2022/02/20 12:04:07;;;;;;;0.60;0.60;;;9.10;99.90;;;;;;5064312;28;20204;-83
2022/02/20 12:06:41;;;;;;;0.40;0.40;;;9.10;99.90;;;;;;5065255;28;20231;-83
2022/02/20 12:09:27;;;;;;;1.00;0.60;;;9.00;99.90;;;;;;5067727;28;20221;-83
2022/02/20 12:11:56;;;;;;;1.25;0.55;;;9.10;99.90;;;;;;5064508;28;20211;-82
2022/02/20 12:14:28;;;;;;;0.68;0.68;;;9.10;99.90;;;;;;5063533;28;20208;-83
2022/02/20 12:16:57;;;;;;;0.40;0.40;;;9.20;99.90;;;;;;5063676;28;20218;-83
2022/02/20 12:19:32;;;;;;;0.88;0.50;;;9.30;99.90;;;;;;5063620;28;20213;-82
2022/02/20 12:22:11;;;;;;;0.40;0.40;;;9.30;99.90;;;;;;5065234;28;20216;-83
2022/02/20 12:24:43;;;;;;;1.20;0.45;;;9.20;99.90;;;;;;5064433;28;20213;-82
2022/02/20 12:27:24;;;;;;;0.50;0.50;;;9.10;99.90;;;;;;5065696;28;20219;-81
2022/02/20 12:29:53;;;;;;;0.50;0.50;;;9.20;99.90;;;;;;5067513;28;20215;-81
2022/02/20 12:32:27;;;;;;;2.05;1.13;;;9.30;99.90;;;;;;5065830;28;20213;-82
2022/02/20 12:35:01;;;;;;;1.00;0.70;;;9.10;99.90;;;;;;5066556;28;20814;-81
2022/02/20 12:37:37;;;;;;;1.20;0.70;;;9.10;99.90;;;;;;5074614;22;20231;-80
2022/02/20 12:40:08;;;;;;;0.30;0.30;;;9.00;99.90;;;;;;5058745;28;20190;-80
2022/02/20 12:42:42;;;;;;;0.30;0.30;;;9.00;99.90;;;;;;5058399;28;20213;-80
2022/02/20 12:45:18;;;;;;;0.50;0.50;;;9.00;99.90;;;;;;5060430;28;20190;-80
2022/02/20 12:47:48;;;;;;;0.60;0.60;;;9.00;99.90;;;;;;5060593;28;20234;-80
2022/02/20 12:50:15;;;;;;;0.40;0.40;;;9.10;99.90;;;;;;5057968;28;20190;-81
2022/02/20 12:52:43;;;;;;;1.50;0.60;;;9.20;99.90;;;;;;5058416;28;20584;-80
2022/02/20 12:55:14;;;;;;;1.05;0.98;;;9.30;99.90;;;;;;5059028;28;20213;-80
2022/02/20 12:57:43;;;;;;;0.40;0.40;;;9.30;99.90;;;;;;5059246;28;20222;-80
2022/02/20 13:00:12;;;;;;;0.70;0.65;;;9.50;99.90;;;;;;5059138;28;20222;-80
2022/02/20 13:02:41;;;;;;;5.20;1.10;;;9.40;99.90;;;;;;5059704;28;20206;-80